.
WxDataArchive / Data Records for 2009-11-09
2009-11-08 November 2009 2009-11-10

Data Records for Monday, 09 November 2009

Time	Temp	Chill	HIndex	Humid	Dewpt	 Wind 	HiWind	WindDir	Rain 	Barom 
-----	----	-----	------	-----	-----	------	------	-------	-----	----- 
00:00	56.0	56.0	56.0	74	47.8	0	3	248	0.00	30.178 
00:05	56.0	56.0	56.0	74	47.8	0	1	248	0.00	30.178 
00:10	56.0	56.0	56.0	73	47.5	0	1	248	0.00	30.178 
00:15	55.9	55.9	55.9	73	47.4	0	1	248	0.00	30.176 
00:20	55.6	55.6	55.6	74	47.4	0	0	---	0.00	30.176 
00:25	55.1	55.1	55.1	74	47.0	0	0	---	0.00	30.176 
00:30	54.8	54.8	54.8	75	47.0	0	0	---	0.00	30.175 
00:35	54.4	54.4	54.4	76	47.0	0	0	---	0.00	30.175 
00:40	54.1	54.1	54.1	76	46.7	0	0	---	0.00	30.175 
00:45	53.6	53.6	53.6	77	46.6	0	0	---	0.00	30.175 
00:50	53.3	53.3	53.3	78	46.6	0	0	---	0.00	30.175 
00:55	53.1	53.1	53.1	79	46.8	0	0	---	0.00	30.175 
01:00	52.6	52.6	52.6	79	46.3	0	0	---	0.00	30.178 
01:05	52.3	52.3	52.3	80	46.3	0	0	---	0.00	30.178 
01:10	51.9	51.9	51.9	81	46.3	0	0	---	0.00	30.178 
01:15	51.6	51.6	51.6	81	46.0	0	0	---	0.00	30.180 
01:20	51.3	51.3	51.3	82	46.0	0	0	---	0.00	30.180 
01:25	51.1	51.1	51.1	83	46.1	0	0	---	0.00	30.180 
01:30	51.1	51.1	51.1	84	46.4	0	1	248	0.00	30.181 
01:35	51.3	51.3	51.3	84	46.6	0	1	248	0.00	30.181 
01:40	51.4	51.4	51.4	84	46.7	0	1	248	0.00	30.181 
01:45	51.7	51.7	51.7	84	47.0	0	3	248	0.00	30.183 
01:50	51.9	51.9	51.9	84	47.2	0	3	248	0.00	30.183 
01:55	52.3	52.3	52.3	84	47.6	1	3	248	0.00	30.183 
02:00	52.8	52.8	52.8	82	47.5	0	3	248	0.00	30.181 
02:05	53.1	53.1	53.1	82	47.8	1	4	225	0.00	30.181 
02:10	53.3	53.3	53.3	81	47.6	1	4	248	0.00	30.181 
02:15	53.5	53.5	53.5	81	47.8	0	1	248	0.00	30.188 
02:20	53.6	53.6	53.6	80	47.6	0	2	248	0.00	30.188 
02:25	53.8	53.8	53.8	80	47.8	0	3	248	0.00	30.188 
02:30	53.9	53.9	53.9	80	47.9	1	3	248	0.00	30.189 
02:35	53.9	53.9	53.9	79	47.5	1	4	248	0.00	30.189 
02:40	54.2	54.2	54.2	79	47.8	1	4	248	0.00	30.189 
02:45	54.2	54.2	54.2	79	47.8	1	5	248	0.00	30.191 
02:50	54.2	54.2	54.2	78	47.5	0	3	248	0.00	30.191 
02:55	54.2	54.2	54.2	78	47.5	1	5	248	0.00	30.191 
03:00	54.2	54.2	54.2	78	47.5	1	3	248	0.00	30.186 
03:05	54.2	54.2	54.2	78	47.5	1	4	225	0.00	30.186 
03:10	54.1	54.1	54.1	79	47.7	1	4	248	0.00	30.186 
03:15	54.2	54.2	54.2	79	47.8	1	5	248	0.00	30.194 
03:20	54.2	54.2	54.2	79	47.8	1	4	248	0.00	30.194 
03:25	54.2	54.2	54.2	78	47.5	1	4	248	0.00	30.194 
03:30	54.4	54.4	54.4	79	48.0	1	4	248	0.00	30.199 
03:35	54.4	54.4	54.4	78	47.7	1	5	248	0.00	30.199 
03:40	54.4	54.4	54.4	78	47.7	1	3	248	0.00	30.199 
03:45	54.2	54.2	54.2	78	47.5	0	2	248	0.00	30.200 
03:50	54.2	54.2	54.2	79	47.8	1	4	248	0.00	30.200 
03:55	54.2	54.2	54.2	79	47.8	1	4	248	0.00	30.200 
04:00	54.1	54.1	54.1	79	47.7	0	3	248	0.00	30.206 
04:05	53.9	53.9	53.9	79	47.5	0	1	248	0.00	30.206 
04:10	53.8	53.8	53.8	79	47.4	0	1	248	0.00	30.206 
04:15	53.6	53.6	53.6	80	47.6	0	1	248	0.00	30.205 
04:20	53.3	53.3	53.3	80	47.3	0	0	---	0.00	30.205 
04:25	53.2	53.2	53.2	81	47.5	0	1	248	0.00	30.205 
04:30	53.1	53.1	53.1	81	47.4	0	1	248	0.00	30.206 
04:35	52.8	52.8	52.8	81	47.1	0	2	248	0.00	30.206 
04:40	52.6	52.6	52.6	82	47.3	0	2	248	0.00	30.206 
04:45	52.5	52.5	52.5	82	47.2	0	2	248	0.00	30.207 
04:50	52.3	52.3	52.3	83	47.3	0	1	248	0.00	30.207 
04:55	52.3	52.3	52.3	83	47.3	0	1	248	0.00	30.207 
05:00	52.2	52.2	52.2	83	47.2	0	2	248	0.00	30.209 
05:05	52.2	52.2	52.2	84	47.5	0	2	248	0.00	30.209 
05:10	52.2	52.2	52.2	83	47.2	0	2	248	0.00	30.209 
05:15	52.0	52.0	52.0	84	47.3	0	1	248	0.00	30.215 
05:20	52.0	52.0	52.0	84	47.3	0	1	248	0.00	30.215 
05:25	52.0	52.0	52.0	84	47.3	0	1	248	0.00	30.215 
05:30	52.0	52.0	52.0	84	47.3	0	1	248	0.00	30.215 
05:35	52.0	52.0	52.0	84	47.3	0	1	248	0.00	30.215 
05:40	52.2	52.2	52.2	84	47.5	0	2	248	0.00	30.215 
05:45	52.2	52.2	52.2	84	47.5	0	2	248	0.00	30.216 
05:50	52.5	52.5	52.5	84	47.8	0	3	248	0.00	30.216 
05:55	52.5	52.5	52.5	84	47.8	0	1	248	0.00	30.216 
06:00	52.6	52.6	52.6	84	47.9	0	2	248	0.00	30.216 
06:05	52.6	52.6	52.6	83	47.6	0	2	248	0.00	30.216 
06:10	52.6	52.6	52.6	83	47.6	0	1	248	0.00	30.216 
06:15	52.6	52.6	52.6	84	47.9	1	4	248	0.00	30.219 
06:20	52.8	52.8	52.8	84	48.1	0	2	248	0.00	30.219 
06:25	52.9	52.9	52.9	84	48.2	1	3	248	0.00	30.219 
06:30	52.9	52.9	52.9	83	47.9	0	3	248	0.00	30.221 
06:35	53.2	53.2	53.2	83	48.2	1	4	248	0.00	30.221 
06:40	53.2	53.2	53.2	83	48.2	0	2	248	0.00	30.221 
06:45	53.3	53.3	53.3	83	48.3	0	2	248	0.00	30.225 
06:50	53.2	53.2	53.2	83	48.2	0	3	248	0.00	30.225 
06:55	53.2	53.2	53.2	83	48.2	1	4	248	0.00	30.225 
07:00	53.2	53.2	53.2	83	48.2	0	3	248	0.00	30.231 
07:05	53.2	53.2	53.2	83	48.2	1	4	248	0.00	30.231 
07:10	53.2	53.2	53.2	83	48.2	0	3	248	0.00	30.231 
07:15	53.2	53.2	53.2	84	48.5	0	4	248	0.00	30.232 
07:20	53.1	53.1	53.1	84	48.4	0	1	248	0.00	30.232 
07:25	53.1	53.1	53.1	84	48.4	0	2	248	0.00	30.232 
07:30	53.2	53.2	53.2	84	48.5	0	1	248	0.00	30.231 
07:35	53.1	53.1	53.1	84	48.4	0	1	248	0.00	30.231 
07:40	53.1	53.1	53.1	84	48.4	0	1	248	0.00	30.231 
07:45	53.2	53.2	53.2	85	48.8	0	3	248	0.00	30.242 
07:50	53.3	53.3	53.3	85	48.9	0	3	248	0.00	30.242 
07:55	53.5	53.5	53.5	85	49.1	0	2	248	0.00	30.242 
08:00	53.6	53.6	53.6	84	48.9	1	4	248	0.00	30.243 
08:05	53.8	53.8	53.8	84	49.1	1	3	248	0.00	30.243 
08:10	54.1	54.1	54.1	84	49.4	1	4	248	0.00	30.243 
08:15	54.2	54.2	54.2	84	49.5	1	5	248	0.00	30.247 
08:20	54.4	54.4	54.4	84	49.7	1	4	248	0.00	30.247 
08:25	54.7	54.7	54.7	84	50.0	1	5	225	0.00	30.247 
08:30	55.0	55.0	55.0	83	49.9	2	6	248	0.00	30.253 
08:35	55.3	55.3	55.3	82	49.9	2	7	248	0.00	30.253 
08:40	55.4	55.4	55.4	82	50.0	1	4	248	0.00	30.253 
08:45	55.6	55.6	55.6	82	50.2	1	4	248	0.00	30.256 
08:50	55.9	55.9	55.9	81	50.2	2	6	248	0.00	30.256 
08:55	56.0	56.0	56.0	81	50.3	1	4	248	0.00	30.256 
09:00	56.0	56.0	56.0	81	50.3	1	4	248	0.00	30.260 
09:05	56.2	56.2	56.2	81	50.4	1	6	248	0.00	30.260 
09:10	56.3	56.3	56.3	81	50.5	2	6	248	0.00	30.260 
09:15	56.5	56.5	56.5	80	50.4	2	5	248	0.00	30.260 
09:20	56.6	56.6	56.6	80	50.5	2	4	248	0.00	30.260 
09:25	56.7	56.7	56.7	80	50.6	2	6	248	0.00	30.260 
09:30	56.9	56.9	56.9	80	50.8	2	5	248	0.00	30.259 
09:35	57.0	57.0	57.0	80	50.9	1	7	270	0.00	30.259 
09:40	57.2	57.2	57.2	79	50.7	1	4	248	0.00	30.259 
09:45	57.3	57.3	57.3	79	50.8	1	4	248	0.00	30.254 
09:50	57.5	57.5	57.5	79	51.0	2	5	248	0.00	30.254 
09:55	57.8	57.8	57.8	79	51.3	1	5	248	0.00	30.254 
10:00	58.0	58.0	58.0	79	51.5	2	4	248	0.00	30.257 
10:05	58.1	58.1	58.1	78	51.3	1	5	248	0.00	30.257 
10:10	58.4	58.4	58.4	78	51.6	1	3	248	0.00	30.257 
10:15	58.6	58.6	58.6	77	51.4	2	7	248	0.00	30.260 
10:20	58.9	58.9	58.9	77	51.7	2	10	248	0.00	30.260 
10:25	59.0	59.0	59.0	77	51.8	2	9	248	0.00	30.260 
10:30	59.3	59.3	59.3	77	52.1	2	6	248	0.00	30.265 
10:35	59.6	59.6	59.6	76	52.0	2	5	248	0.00	30.265 
10:40	59.9	59.9	59.9	76	52.3	2	6	248	0.00	30.265 
10:45	60.1	60.1	60.1	75	52.1	2	5	248	0.00	30.264 
10:50	60.4	60.4	60.4	75	52.4	1	5	248	0.00	30.264 
10:55	60.7	60.7	60.7	75	52.7	2	5	248	0.00	30.264 
11:00	61.2	61.2	61.2	74	52.8	2	5	248	0.00	30.260 
11:05	61.5	61.5	61.5	73	52.8	2	5	248	0.00	30.260 
11:10	61.8	61.8	61.8	73	53.0	2	6	248	0.00	30.260 
11:15	62.1	62.1	62.1	72	53.0	1	4	248	0.00	30.268 
11:20	62.4	62.4	62.4	72	53.2	1	4	248	0.00	30.268 
11:25	62.9	62.9	62.9	72	53.7	1	4	248	0.00	30.268 
11:30	63.2	63.2	63.2	69	52.9	2	5	248	0.00	30.258 
11:35	63.5	63.5	63.5	69	53.1	2	5	248	0.00	30.258 
11:40	64.0	64.0	64.0	69	53.6	3	9	248	0.00	30.258 
11:45	64.3	64.3	64.3	68	53.5	2	4	248	0.00	30.254 
11:50	64.7	64.7	64.7	67	53.5	3	5	248	0.00	30.254 
11:55	64.8	64.8	64.8	67	53.6	2	5	270	0.00	30.254 
12:00	65.0	65.0	65.0	66	53.4	3	5	270	0.00	30.254 
12:05	65.2	65.2	65.2	66	53.5	3	5	270	0.00	30.254 
12:10	65.2	65.2	65.2	66	53.5	3	6	248	0.00	30.254 
12:15	65.2	65.2	65.2	66	53.5	2	6	248	0.00	30.253 
12:20	65.3	65.3	65.3	66	53.6	2	6	270	0.00	30.253 
12:25	65.5	65.5	65.5	66	53.8	2	6	248	0.00	30.253 
12:30	65.6	65.6	65.6	65	53.5	1	5	248	0.00	30.244 
12:35	65.6	65.6	65.6	66	53.9	2	6	248	0.00	30.244 
12:40	65.8	65.8	65.8	65	53.7	1	3	248	0.00	30.244 
12:45	65.8	65.8	65.8	65	53.7	1	6	248	0.00	30.240 
12:50	65.8	65.8	65.8	65	53.7	1	3	248	0.00	30.240 
12:55	65.6	65.6	65.6	66	53.9	1	4	248	0.00	30.240 
13:00	65.5	65.5	65.5	66	53.8	1	4	270	0.00	30.239 
13:05	65.5	65.5	65.5	66	53.8	2	3	248	0.00	30.239 
13:10	65.5	65.5	65.5	66	53.8	1	3	248	0.00	30.239 
13:15	65.5	65.5	65.5	66	53.8	1	4	248	0.00	30.236 
13:20	65.5	65.5	65.5	67	54.2	1	2	270	0.00	30.236 
13:25	65.3	65.3	65.3	66	53.6	0	2	315	0.00	30.236 
13:30	65.3	65.3	65.3	67	54.1	0	2	315	0.00	30.228 
13:35	65.3	65.3	65.3	67	54.1	0	2	315	0.00	30.228 
13:40	65.5	65.5	65.5	67	54.2	0	1	315	0.00	30.228 
13:45	65.5	65.5	65.5	66	53.8	0	1	315	0.00	30.225 
13:50	65.5	65.5	65.5	66	53.8	0	1	315	0.00	30.225 
13:55	65.6	65.6	65.6	66	53.9	0	1	315	0.00	30.225 
14:00	65.8	65.8	65.8	66	54.1	0	3	315	0.00	30.225 
14:05	66.1	66.1	66.1	66	54.4	0	2	315	0.00	30.225 
14:10	66.6	66.6	66.6	66	54.9	1	4	225	0.00	30.225 
14:15	66.8	66.8	66.8	64	54.2	1	4	248	0.00	30.228 
14:20	66.8	66.8	66.8	63	53.8	2	5	248	0.00	30.228 
14:25	66.6	66.6	66.6	64	54.0	1	4	248	0.00	30.228 
14:30	66.6	66.6	66.6	64	54.0	1	3	248	0.00	30.227 
14:35	66.6	66.6	66.6	65	54.5	0	1	248	0.00	30.227 
14:40	66.4	66.4	66.4	65	54.3	0	1	248	0.00	30.227 
14:45	66.4	66.4	66.4	65	54.3	0	1	248	0.00	30.232 
14:50	66.4	66.4	66.4	65	54.3	0	3	248	0.00	30.232 
14:55	66.3	66.3	66.3	65	54.2	1	3	248	0.00	30.232 
15:00	66.3	66.3	66.3	65	54.2	0	2	225	0.00	30.232 
15:05	66.1	66.1	66.1	65	54.0	0	1	225	0.00	30.232 
15:10	66.1	66.1	66.1	65	54.0	0	1	225	0.00	30.232 
15:15	66.0	66.0	66.0	65	53.9	0	2	225	0.00	30.240 
15:20	66.0	66.0	66.0	66	54.3	0	1	225	0.00	30.240 
15:25	65.8	65.8	65.8	66	54.1	0	2	225	0.00	30.240 
15:30	65.8	65.8	65.8	66	54.1	0	1	225	0.00	30.243 
15:35	65.6	65.6	65.6	66	53.9	0	1	225	0.00	30.243 
15:40	65.6	65.6	65.6	67	54.3	0	1	225	0.00	30.243 
15:45	65.5	65.5	65.5	66	53.8	0	1	225	0.00	30.239 
15:50	65.5	65.5	65.5	66	53.8	0	2	225	0.00	30.239 
15:55	65.5	65.5	65.5	66	53.8	0	2	225	0.00	30.239 
16:00	65.3	65.3	65.3	67	54.1	0	1	225	0.00	30.253 
16:05	65.2	65.2	65.2	67	54.0	0	1	225	0.00	30.253 
16:10	65.0	65.0	65.0	68	54.2	0	1	225	0.00	30.253 
16:15	64.8	64.8	64.8	68	54.0	0	1	225	0.00	30.259 
16:20	64.7	64.7	64.7	68	53.9	0	0	---	0.00	30.259 
16:25	64.5	64.5	64.5	69	54.1	0	1	225	0.00	30.259 
16:30	64.2	64.2	64.2	69	53.8	0	0	---	0.00	30.257 
16:35	63.9	63.9	63.9	70	53.9	0	0	---	0.00	30.257 
16:40	63.7	63.7	63.7	70	53.7	0	0	---	0.00	30.257 
16:45	63.5	63.5	63.5	71	53.9	0	0	---	0.00	30.271 
16:50	63.4	63.4	63.4	71	53.8	0	0	---	0.00	30.271 
16:55	63.2	63.2	63.2	71	53.6	0	0	---	0.00	30.271 
17:00	63.1	63.1	63.1	72	53.9	0	0	---	0.00	30.288 
17:05	62.9	62.9	62.9	72	53.7	0	0	---	0.00	30.288 
17:10	62.7	62.7	62.7	72	53.5	0	0	---	0.00	30.288 
17:15	62.4	62.4	62.4	73	53.6	0	0	---	0.00	30.294 
17:20	62.3	62.3	62.3	74	53.9	0	0	---	0.00	30.294 
17:25	62.1	62.1	62.1	74	53.7	0	0	---	0.00	30.294 
17:30	62.0	62.0	62.0	74	53.6	0	0	---	0.00	30.300 
17:35	62.0	62.0	62.0	75	54.0	0	0	---	0.00	30.300 
17:40	61.8	61.8	61.8	75	53.8	0	0	---	0.00	30.300 
17:45	61.6	61.6	61.6	76	54.0	0	0	---	0.00	30.293 
17:50	61.5	61.5	61.5	76	53.9	0	0	---	0.00	30.293 
17:55	61.3	61.3	61.3	76	53.7	0	0	---	0.00	30.293 
18:00	61.0	61.0	61.0	77	53.7	0	0	---	0.00	30.296 
18:05	60.9	60.9	60.9	77	53.6	0	0	---	0.00	30.296 
18:10	60.7	60.7	60.7	78	53.8	0	0	---	0.00	30.296 
18:15	60.7	60.7	60.7	78	53.8	0	0	---	0.00	30.302 
18:20	60.9	60.9	60.9	78	54.0	0	0	---	0.00	30.302 
18:25	60.9	60.9	60.9	78	54.0	0	0	---	0.00	30.302 
18:30	60.9	60.9	60.9	78	54.0	0	0	---	0.00	30.299 
18:35	60.7	60.7	60.7	78	53.8	0	0	---	0.00	30.299 
18:40	60.5	60.5	60.5	78	53.6	0	0	---	0.00	30.299 
18:45	60.4	60.4	60.4	79	53.9	0	0	---	0.00	30.306 
18:50	60.2	60.2	60.2	79	53.7	0	0	---	0.00	30.306 
18:55	60.1	60.1	60.1	80	53.9	0	0	---	0.00	30.306 
19:00	59.9	59.9	59.9	80	53.7	0	0	---	0.00	30.301 
19:05	59.8	59.8	59.8	80	53.6	0	0	---	0.00	30.301 
19:10	59.6	59.6	59.6	81	53.8	0	0	---	0.00	30.301 
19:15	59.3	59.3	59.3	81	53.5	0	0	---	0.00	30.307 
19:20	59.2	59.2	59.2	81	53.4	0	0	---	0.00	30.307 
19:25	59.0	59.0	59.0	82	53.5	0	0	---	0.00	30.307 
19:30	58.9	58.9	58.9	82	53.4	0	0	---	0.00	30.309 
19:35	58.7	58.7	58.7	82	53.2	0	0	---	0.00	30.309 
19:40	58.6	58.6	58.6	83	53.4	0	0	---	0.00	30.309 
19:45	58.3	58.3	58.3	83	53.2	0	0	---	0.00	30.309 
19:50	58.1	58.1	58.1	84	53.3	0	0	---	0.00	30.309 
19:55	58.0	58.0	58.0	84	53.2	0	0	---	0.00	30.309 
20:00	57.8	57.8	57.8	85	53.3	0	0	---	0.00	30.309 
20:05	57.6	57.6	57.6	85	53.1	0	0	---	0.00	30.309 
20:10	57.6	57.6	57.6	85	53.1	0	0	---	0.00	30.309 
20:15	57.6	57.6	57.6	85	53.1	0	0	---	0.00	30.308 
20:20	57.6	57.6	57.6	85	53.1	0	0	---	0.00	30.308 
20:25	57.6	57.6	57.6	85	53.1	0	0	---	0.00	30.308 
20:30	57.6	57.6	57.6	85	53.1	0	0	---	0.00	30.309 
20:35	57.6	57.6	57.6	86	53.4	0	0	---	0.00	30.309 
20:40	57.6	57.6	57.6	86	53.4	0	0	---	0.00	30.309 
20:45	57.6	57.6	57.6	86	53.4	0	0	---	0.00	30.309 
20:50	57.6	57.6	57.6	86	53.4	0	0	---	0.00	30.309 
20:55	57.6	57.6	57.6	86	53.4	0	0	---	0.00	30.309 
21:00	57.6	57.6	57.6	86	53.4	0	0	---	0.00	30.309 
21:05	57.6	57.6	57.6	86	53.4	0	0	---	0.00	30.309 
21:10	57.6	57.6	57.6	87	53.8	0	0	---	0.00	30.309 
21:15	57.8	57.8	57.8	86	53.6	0	0	---	0.00	30.308 
21:20	57.8	57.8	57.8	86	53.6	0	0	---	0.00	30.308 
21:25	58.1	58.1	58.1	86	53.9	0	0	---	0.00	30.308 
21:30	58.4	58.4	58.4	85	53.9	0	0	---	0.00	30.315 
21:35	58.7	58.7	58.7	84	53.9	0	0	---	0.00	30.315 
21:40	58.9	58.9	58.9	84	54.1	0	0	---	0.00	30.315 
21:45	59.2	59.2	59.2	83	54.0	0	0	---	0.00	30.312 
21:50	59.3	59.3	59.3	82	53.8	0	0	---	0.00	30.312 
21:55	59.3	59.3	59.3	82	53.8	0	0	---	0.00	30.312 
22:00	59.3	59.3	59.3	82	53.8	0	0	---	0.00	30.316 
22:05	59.3	59.3	59.3	82	53.8	0	0	---	0.00	30.316 
22:10	59.2	59.2	59.2	82	53.7	0	0	---	0.00	30.316 
22:15	59.0	59.0	59.0	82	53.5	0	0	---	0.00	30.310 
22:20	58.9	58.9	58.9	82	53.4	0	0	---	0.00	30.310 
22:25	58.9	58.9	58.9	82	53.4	0	0	---	0.00	30.310 
22:30	58.7	58.7	58.7	82	53.2	0	0	---	0.00	30.310 
22:35	58.7	58.7	58.7	83	53.5	0	0	---	0.00	30.310 
22:40	58.6	58.6	58.6	83	53.4	0	0	---	0.00	30.310 
22:45	58.4	58.4	58.4	83	53.3	0	0	---	0.00	30.309 
22:50	58.3	58.3	58.3	83	53.2	0	0	---	0.00	30.309 
22:55	58.3	58.3	58.3	83	53.2	0	0	---	0.00	30.309 
23:00	58.1	58.1	58.1	83	53.0	0	0	---	0.00	30.305 
23:05	58.0	58.0	58.0	83	52.9	0	0	---	0.00	30.305 
23:10	57.8	57.8	57.8	84	53.0	0	0	---	0.00	30.305 
23:15	57.6	57.6	57.6	84	52.8	0	0	---	0.00	30.301 
23:20	57.5	57.5	57.5	84	52.7	0	0	---	0.00	30.301 
23:25	57.3	57.3	57.3	84	52.5	0	0	---	0.00	30.301 
23:30	57.2	57.2	57.2	85	52.7	0	0	---	0.00	30.303 
23:35	57.0	57.0	57.0	85	52.5	0	0	---	0.00	30.303 
23:40	56.9	56.9	56.9	85	52.4	0	0	---	0.00	30.303 
23:45	56.7	56.7	56.7	86	52.6	0	0	---	0.00	30.310 
23:50	56.5	56.5	56.5	86	52.4	0	0	---	0.00	30.310 
23:55	56.3	56.3	56.3	87	52.5	0	0	---	0.00	30.310 

CoCoRaHS
IN-AL-39
A2 Web Hosting
Creative Commons License
GoDaddy
search engine by freefind advanced

loaded 2018-11-13 18:04:39 • last modified 2010-11-18 10:43:29
Privacy PolicyDisclaimer
• wx.awcolley.com is powered by PmWiki v.2002016 •
• all content (unless otherwise noted) © 2018 A W Colley